sensor_id;sensor_type;location;lat;lon;timestamp;P1;durP1;ratioP1;P2;durP2;ratioP2
60370;SDS011;48550;40.588;49.684;2024-01-30T00:01:26;18.55;;;7.47;;
60370;SDS011;48550;40.588;49.684;2024-01-30T00:03:52;16.52;;;7.30;;
60370;SDS011;48550;40.588;49.684;2024-01-30T00:06:18;19.58;;;8.70;;
60370;SDS011;48550;40.588;49.684;2024-01-30T00:08:46;19.80;;;7.82;;
60370;SDS011;48550;40.588;49.684;2024-01-30T00:11:14;19.63;;;8.57;;
60370;SDS011;48550;40.588;49.684;2024-01-30T00:13:40;15.20;;;8.20;;
60370;SDS011;48550;40.588;49.684;2024-01-30T00:16:06;19.30;;;7.60;;
60370;SDS011;48550;40.588;49.684;2024-01-30T00:18:32;12.70;;;6.25;;
60370;SDS011;48550;40.588;49.684;2024-01-30T00:20:58;16.42;;;7.97;;
60370;SDS011;48550;40.588;49.684;2024-01-30T00:23:23;19.92;;;7.57;;
60370;SDS011;48550;40.588;49.684;2024-01-30T00:25:49;17.83;;;7.30;;
60370;SDS011;48550;40.588;49.684;2024-01-30T00:28:15;21.75;;;9.13;;
60370;SDS011;48550;40.588;49.684;2024-01-30T00:30:41;24.50;;;8.65;;
60370;SDS011;48550;40.588;49.684;2024-01-30T00:33:07;18.80;;;8.20;;
60370;SDS011;48550;40.588;49.684;2024-01-30T00:35:33;16.02;;;7.63;;
60370;SDS011;48550;40.588;49.684;2024-01-30T00:37:59;16.55;;;8.32;;
60370;SDS011;48550;40.588;49.684;2024-01-30T00:40:25;18.05;;;8.13;;
60370;SDS011;48550;40.588;49.684;2024-01-30T00:42:51;20.77;;;7.68;;
60370;SDS011;48550;40.588;49.684;2024-01-30T00:45:16;20.15;;;8.45;;
60370;SDS011;48550;40.588;49.684;2024-01-30T00:47:42;16.27;;;7.55;;
60370;SDS011;48550;40.588;49.684;2024-01-30T00:50:08;16.80;;;8.38;;
60370;SDS011;48550;40.588;49.684;2024-01-30T00:52:34;19.75;;;8.77;;
60370;SDS011;48550;40.588;49.684;2024-01-30T00:55:01;16.48;;;7.68;;
60370;SDS011;48550;40.588;49.684;2024-01-30T00:57:27;14.95;;;8.00;;
60370;SDS011;48550;40.588;49.684;2024-01-30T00:59:53;17.30;;;8.10;;
60370;SDS011;48550;40.588;49.684;2024-01-30T01:02:20;16.52;;;6.80;;
60370;SDS011;48550;40.588;49.684;2024-01-30T01:04:45;15.85;;;7.78;;
60370;SDS011;48550;40.588;49.684;2024-01-30T01:07:11;19.85;;;7.30;;
60370;SDS011;48550;40.588;49.684;2024-01-30T01:09:37;24.33;;;8.23;;
60370;SDS011;48550;40.588;49.684;2024-01-30T01:12:03;15.70;;;7.20;;
60370;SDS011;48550;40.588;49.684;2024-01-30T01:14:29;16.05;;;7.10;;
60370;SDS011;48550;40.588;49.684;2024-01-30T01:16:55;16.15;;;6.65;;
60370;SDS011;48550;40.588;49.684;2024-01-30T01:19:21;16.52;;;6.35;;
60370;SDS011;48550;40.588;49.684;2024-01-30T01:21:47;17.98;;;7.22;;
60370;SDS011;48550;40.588;49.684;2024-01-30T01:24:13;16.83;;;7.22;;
60370;SDS011;48550;40.588;49.684;2024-01-30T01:26:39;16.02;;;7.45;;
60370;SDS011;48550;40.588;49.684;2024-01-30T01:29:05;18.33;;;8.15;;
60370;SDS011;48550;40.588;49.684;2024-01-30T01:31:37;17.58;;;7.20;;
60370;SDS011;48550;40.588;49.684;2024-01-30T01:34:11;16.10;;;7.67;;
60370;SDS011;48550;40.588;49.684;2024-01-30T01:36:38;18.38;;;7.53;;
60370;SDS011;48550;40.588;49.684;2024-01-30T01:39:04;18.42;;;6.85;;
60370;SDS011;48550;40.588;49.684;2024-01-30T01:41:30;15.02;;;7.47;;
60370;SDS011;48550;40.588;49.684;2024-01-30T01:43:57;16.52;;;7.70;;
60370;SDS011;48550;40.588;49.684;2024-01-30T01:46:23;20.95;;;8.38;;
60370;SDS011;48550;40.588;49.684;2024-01-30T01:48:51;16.45;;;8.07;;
60370;SDS011;48550;40.588;49.684;2024-01-30T01:51:17;16.88;;;8.15;;
60370;SDS011;48550;40.588;49.684;2024-01-30T01:53:43;16.15;;;7.90;;
60370;SDS011;48550;40.588;49.684;2024-01-30T01:56:09;21.25;;;8.07;;
60370;SDS011;48550;40.588;49.684;2024-01-30T01:58:35;21.40;;;8.43;;
60370;SDS011;48550;40.588;49.684;2024-01-30T02:01:02;17.27;;;7.53;;
60370;SDS011;48550;40.588;49.684;2024-01-30T02:03:30;16.15;;;7.55;;
60370;SDS011;48550;40.588;49.684;2024-01-30T02:05:56;18.63;;;8.57;;
60370;SDS011;48550;40.588;49.684;2024-01-30T02:08:22;17.52;;;8.30;;
60370;SDS011;48550;40.588;49.684;2024-01-30T02:10:49;23.55;;;8.13;;
60370;SDS011;48550;40.588;49.684;2024-01-30T02:13:15;19.30;;;7.30;;
60370;SDS011;48550;40.588;49.684;2024-01-30T02:15:41;17.58;;;7.15;;
60370;SDS011;48550;40.588;49.684;2024-01-30T02:18:06;17.70;;;7.43;;
60370;SDS011;48550;40.588;49.684;2024-01-30T02:20:32;18.48;;;7.97;;
60370;SDS011;48550;40.588;49.684;2024-01-30T02:23:00;15.75;;;7.45;;
60370;SDS011;48550;40.588;49.684;2024-01-30T02:25:39;20.23;;;7.10;;
60370;SDS011;48550;40.588;49.684;2024-01-30T02:28:11;21.02;;;8.20;;
60370;SDS011;48550;40.588;49.684;2024-01-30T02:30:47;18.08;;;7.28;;
60370;SDS011;48550;40.588;49.684;2024-01-30T02:33:12;16.08;;;6.88;;
60370;SDS011;48550;40.588;49.684;2024-01-30T02:35:38;21.85;;;8.57;;
60370;SDS011;48550;40.588;49.684;2024-01-30T02:38:04;17.40;;;7.55;;
60370;SDS011;48550;40.588;49.684;2024-01-30T02:40:31;18.00;;;6.97;;
60370;SDS011;48550;40.588;49.684;2024-01-30T02:42:58;19.48;;;7.80;;
60370;SDS011;48550;40.588;49.684;2024-01-30T02:45:24;20.40;;;7.85;;
60370;SDS011;48550;40.588;49.684;2024-01-30T02:47:50;17.95;;;7.65;;
60370;SDS011;48550;40.588;49.684;2024-01-30T02:50:16;13.30;;;6.50;;
60370;SDS011;48550;40.588;49.684;2024-01-30T02:52:42;16.65;;;8.60;;
60370;SDS011;48550;40.588;49.684;2024-01-30T02:55:11;20.80;;;7.78;;
60370;SDS011;48550;40.588;49.684;2024-01-30T02:57:37;20.30;;;8.43;;
60370;SDS011;48550;40.588;49.684;2024-01-30T03:00:05;19.35;;;10.00;;
60370;SDS011;48550;40.588;49.684;2024-01-30T03:02:34;23.45;;;9.65;;
60370;SDS011;48550;40.588;49.684;2024-01-30T03:05:00;21.02;;;8.45;;
60370;SDS011;48550;40.588;49.684;2024-01-30T03:07:26;25.17;;;10.30;;
60370;SDS011;48550;40.588;49.684;2024-01-30T03:09:52;15.38;;;7.18;;
60370;SDS011;48550;40.588;49.684;2024-01-30T03:12:20;17.17;;;9.07;;
60370;SDS011;48550;40.588;49.684;2024-01-30T03:14:46;15.02;;;7.07;;
60370;SDS011;48550;40.588;49.684;2024-01-30T03:17:12;23.02;;;9.02;;
60370;SDS011;48550;40.588;49.684;2024-01-30T03:19:38;21.13;;;7.95;;
60370;SDS011;48550;40.588;49.684;2024-01-30T03:22:04;22.58;;;8.70;;
60370;SDS011;48550;40.588;49.684;2024-01-30T03:24:30;17.83;;;8.35;;
60370;SDS011;48550;40.588;49.684;2024-01-30T03:26:55;16.63;;;7.40;;
60370;SDS011;48550;40.588;49.684;2024-01-30T03:29:21;22.33;;;8.05;;
60370;SDS011;48550;40.588;49.684;2024-01-30T03:31:47;14.45;;;7.30;;
60370;SDS011;48550;40.588;49.684;2024-01-30T03:34:13;14.23;;;7.45;;
60370;SDS011;48550;40.588;49.684;2024-01-30T03:36:38;20.45;;;7.95;;
60370;SDS011;48550;40.588;49.684;2024-01-30T03:39:04;16.52;;;7.15;;
60370;SDS011;48550;40.588;49.684;2024-01-30T03:41:31;17.83;;;7.38;;
60370;SDS011;48550;40.588;49.684;2024-01-30T03:43:57;16.75;;;7.03;;
60370;SDS011;48550;40.588;49.684;2024-01-30T03:46:22;15.82;;;7.55;;
60370;SDS011;48550;40.588;49.684;2024-01-30T03:48:49;20.15;;;6.63;;
60370;SDS011;48550;40.588;49.684;2024-01-30T03:51:15;18.48;;;7.82;;
60370;SDS011;48550;40.588;49.684;2024-01-30T03:53:41;17.08;;;6.72;;
60370;SDS011;48550;40.588;49.684;2024-01-30T03:56:08;16.10;;;7.05;;
60370;SDS011;48550;40.588;49.684;2024-01-30T03:58:34;16.38;;;7.03;;
60370;SDS011;48550;40.588;49.684;2024-01-30T04:01:00;15.80;;;7.35;;
60370;SDS011;48550;40.588;49.684;2024-01-30T04:03:25;20.42;;;7.30;;
60370;SDS011;48550;40.588;49.684;2024-01-30T04:05:51;18.83;;;7.50;;
60370;SDS011;48550;40.588;49.684;2024-01-30T04:08:18;13.10;;;7.20;;
60370;SDS011;48550;40.588;49.684;2024-01-30T04:10:43;18.63;;;6.85;;
60370;SDS011;48550;40.588;49.684;2024-01-30T04:13:09;13.68;;;5.90;;
60370;SDS011;48550;40.588;49.684;2024-01-30T04:15:35;17.63;;;6.47;;
60370;SDS011;48550;40.588;49.684;2024-01-30T04:18:01;15.65;;;6.60;;
60370;SDS011;48550;40.588;49.684;2024-01-30T04:20:27;14.10;;;7.07;;
60370;SDS011;48550;40.588;49.684;2024-01-30T04:22:52;15.57;;;7.25;;
60370;SDS011;48550;40.588;49.684;2024-01-30T04:25:18;14.63;;;6.13;;
60370;SDS011;48550;40.588;49.684;2024-01-30T04:27:44;15.85;;;6.95;;
60370;SDS011;48550;40.588;49.684;2024-01-30T04:30:10;19.73;;;7.57;;
60370;SDS011;48550;40.588;49.684;2024-01-30T04:32:36;18.58;;;8.57;;
60370;SDS011;48550;40.588;49.684;2024-01-30T04:35:02;15.15;;;7.05;;
60370;SDS011;48550;40.588;49.684;2024-01-30T04:37:28;14.55;;;7.10;;
60370;SDS011;48550;40.588;49.684;2024-01-30T04:39:54;16.13;;;7.20;;
60370;SDS011;48550;40.588;49.684;2024-01-30T04:42:20;16.67;;;7.35;;
60370;SDS011;48550;40.588;49.684;2024-01-30T04:44:46;13.70;;;7.05;;
60370;SDS011;48550;40.588;49.684;2024-01-30T04:47:11;12.88;;;6.05;;
60370;SDS011;48550;40.588;49.684;2024-01-30T04:49:40;11.35;;;6.07;;
60370;SDS011;48550;40.588;49.684;2024-01-30T04:52:06;19.67;;;7.63;;
60370;SDS011;48550;40.588;49.684;2024-01-30T04:54:33;17.70;;;8.15;;
60370;SDS011;48550;40.588;49.684;2024-01-30T04:56:59;12.07;;;6.63;;
60370;SDS011;48550;40.588;49.684;2024-01-30T04:59:25;20.40;;;7.53;;
60370;SDS011;48550;40.588;49.684;2024-01-30T05:01:51;10.63;;;5.90;;
60370;SDS011;48550;40.588;49.684;2024-01-30T05:04:17;13.90;;;6.32;;
60370;SDS011;48550;40.588;49.684;2024-01-30T05:06:42;20.30;;;7.10;;
60370;SDS011;48550;40.588;49.684;2024-01-30T05:09:08;16.42;;;6.85;;
60370;SDS011;48550;40.588;49.684;2024-01-30T05:11:40;14.15;;;6.72;;
60370;SDS011;48550;40.588;49.684;2024-01-30T05:14:06;16.15;;;6.72;;
60370;SDS011;48550;40.588;49.684;2024-01-30T05:16:33;13.38;;;6.05;;
60370;SDS011;48550;40.588;49.684;2024-01-30T05:18:59;6.85;;;4.05;;
60370;SDS011;48550;40.588;49.684;2024-01-30T05:21:26;12.32;;;5.32;;
60370;SDS011;48550;40.588;49.684;2024-01-30T05:23:51;14.52;;;5.78;;
60370;SDS011;48550;40.588;49.684;2024-01-30T05:26:17;19.13;;;6.13;;
60370;SDS011;48550;40.588;49.684;2024-01-30T05:28:43;17.83;;;6.78;;
60370;SDS011;48550;40.588;49.684;2024-01-30T05:31:13;16.13;;;7.25;;
60370;SDS011;48550;40.588;49.684;2024-01-30T05:33:39;14.20;;;6.18;;
60370;SDS011;48550;40.588;49.684;2024-01-30T05:36:05;17.77;;;6.97;;
60370;SDS011;48550;40.588;49.684;2024-01-30T05:38:31;12.82;;;6.40;;
60370;SDS011;48550;40.588;49.684;2024-01-30T05:40:57;17.35;;;6.53;;
60370;SDS011;48550;40.588;49.684;2024-01-30T05:43:23;16.25;;;6.93;;
60370;SDS011;48550;40.588;49.684;2024-01-30T05:45:50;17.48;;;6.97;;
60370;SDS011;48550;40.588;49.684;2024-01-30T05:48:16;14.13;;;7.55;;
60370;SDS011;48550;40.588;49.684;2024-01-30T05:50:44;15.98;;;7.00;;
60370;SDS011;48550;40.588;49.684;2024-01-30T05:53:10;15.95;;;7.18;;
60370;SDS011;48550;40.588;49.684;2024-01-30T05:55:36;14.90;;;6.47;;
60370;SDS011;48550;40.588;49.684;2024-01-30T05:58:02;17.85;;;7.20;;
60370;SDS011;48550;40.588;49.684;2024-01-30T06:00:29;14.15;;;6.82;;
60370;SDS011;48550;40.588;49.684;2024-01-30T06:02:55;15.98;;;6.35;;
60370;SDS011;48550;40.588;49.684;2024-01-30T06:05:20;14.90;;;6.93;;
60370;SDS011;48550;40.588;49.684;2024-01-30T06:07:46;15.00;;;6.57;;
60370;SDS011;48550;40.588;49.684;2024-01-30T06:10:12;17.60;;;7.15;;
60370;SDS011;48550;40.588;49.684;2024-01-30T06:12:37;12.35;;;6.45;;
60370;SDS011;48550;40.588;49.684;2024-01-30T06:15:03;15.45;;;7.38;;
60370;SDS011;48550;40.588;49.684;2024-01-30T06:17:29;16.73;;;6.90;;
60370;SDS011;48550;40.588;49.684;2024-01-30T06:19:55;12.52;;;5.85;;
60370;SDS011;48550;40.588;49.684;2024-01-30T06:22:21;15.07;;;5.82;;
60370;SDS011;48550;40.588;49.684;2024-01-30T06:24:47;10.93;;;5.72;;
60370;SDS011;48550;40.588;49.684;2024-01-30T06:27:15;13.90;;;5.88;;
60370;SDS011;48550;40.588;49.684;2024-01-30T06:29:42;11.93;;;6.05;;
60370;SDS011;48550;40.588;49.684;2024-01-30T06:32:08;12.55;;;5.28;;
60370;SDS011;48550;40.588;49.684;2024-01-30T06:34:34;11.98;;;5.22;;
60370;SDS011;48550;40.588;49.684;2024-01-30T06:37:00;10.77;;;5.10;;
60370;SDS011;48550;40.588;49.684;2024-01-30T06:39:26;11.25;;;4.97;;
60370;SDS011;48550;40.588;49.684;2024-01-30T06:41:52;14.38;;;5.60;;
60370;SDS011;48550;40.588;49.684;2024-01-30T06:44:18;12.18;;;5.57;;
60370;SDS011;48550;40.588;49.684;2024-01-30T06:46:44;14.07;;;5.55;;
60370;SDS011;48550;40.588;49.684;2024-01-30T06:49:09;16.38;;;5.10;;
60370;SDS011;48550;40.588;49.684;2024-01-30T06:51:35;12.10;;;5.75;;
60370;SDS011;48550;40.588;49.684;2024-01-30T06:54:01;12.98;;;5.90;;
60370;SDS011;48550;40.588;49.684;2024-01-30T06:56:26;10.65;;;5.57;;
60370;SDS011;48550;40.588;49.684;2024-01-30T06:58:53;9.15;;;5.30;;
60370;SDS011;48550;40.588;49.684;2024-01-30T07:01:19;9.20;;;4.93;;
60370;SDS011;48550;40.588;49.684;2024-01-30T07:03:44;15.25;;;5.22;;
60370;SDS011;48550;40.588;49.684;2024-01-30T07:06:10;9.55;;;4.63;;
60370;SDS011;48550;40.588;49.684;2024-01-30T07:08:37;20.80;;;5.25;;
60370;SDS011;48550;40.588;49.684;2024-01-30T07:11:04;11.55;;;5.35;;
60370;SDS011;48550;40.588;49.684;2024-01-30T07:13:31;10.15;;;4.70;;
60370;SDS011;48550;40.588;49.684;2024-01-30T07:15:57;11.30;;;5.88;;
60370;SDS011;48550;40.588;49.684;2024-01-30T07:18:23;15.68;;;5.50;;
60370;SDS011;48550;40.588;49.684;2024-01-30T07:20:48;12.68;;;6.22;;
60370;SDS011;48550;40.588;49.684;2024-01-30T07:23:15;15.02;;;5.38;;
60370;SDS011;48550;40.588;49.684;2024-01-30T07:25:43;13.52;;;5.60;;
60370;SDS011;48550;40.588;49.684;2024-01-30T07:28:10;16.33;;;5.82;;
60370;SDS011;48550;40.588;49.684;2024-01-30T07:30:36;12.55;;;4.95;;
60370;SDS011;48550;40.588;49.684;2024-01-30T07:33:02;8.75;;;5.00;;
60370;SDS011;48550;40.588;49.684;2024-01-30T07:35:28;12.02;;;5.35;;
60370;SDS011;48550;40.588;49.684;2024-01-30T07:37:53;10.82;;;5.18;;
60370;SDS011;48550;40.588;49.684;2024-01-30T07:40:19;12.40;;;5.05;;
60370;SDS011;48550;40.588;49.684;2024-01-30T07:42:45;10.05;;;5.25;;
60370;SDS011;48550;40.588;49.684;2024-01-30T07:45:11;12.75;;;5.07;;
60370;SDS011;48550;40.588;49.684;2024-01-30T07:47:36;9.55;;;5.53;;
60370;SDS011;48550;40.588;49.684;2024-01-30T07:50:02;11.68;;;5.70;;
60370;SDS011;48550;40.588;49.684;2024-01-30T07:52:28;10.45;;;4.53;;
60370;SDS011;48550;40.588;49.684;2024-01-30T07:54:54;10.20;;;4.97;;
60370;SDS011;48550;40.588;49.684;2024-01-30T07:57:20;10.35;;;5.18;;
60370;SDS011;48550;40.588;49.684;2024-01-30T07:59:46;9.88;;;4.68;;
60370;SDS011;48550;40.588;49.684;2024-01-30T08:02:12;10.68;;;5.00;;
60370;SDS011;48550;40.588;49.684;2024-01-30T08:04:38;9.55;;;5.45;;
60370;SDS011;48550;40.588;49.684;2024-01-30T08:07:04;10.88;;;4.68;;
60370;SDS011;48550;40.588;49.684;2024-01-30T08:09:30;8.73;;;3.95;;
60370;SDS011;48550;40.588;49.684;2024-01-30T08:11:56;13.18;;;5.20;;
60370;SDS011;48550;40.588;49.684;2024-01-30T08:14:22;10.70;;;4.43;;
60370;SDS011;48550;40.588;49.684;2024-01-30T08:16:47;9.68;;;4.45;;
60370;SDS011;48550;40.588;49.684;2024-01-30T08:19:14;8.10;;;3.72;;
60370;SDS011;48550;40.588;49.684;2024-01-30T08:21:40;9.63;;;4.05;;
60370;SDS011;48550;40.588;49.684;2024-01-30T08:24:06;8.27;;;3.92;;
60370;SDS011;48550;40.588;49.684;2024-01-30T08:26:32;7.32;;;4.15;;
60370;SDS011;48550;40.588;49.684;2024-01-30T08:28:58;10.65;;;4.82;;
60370;SDS011;48550;40.588;49.684;2024-01-30T08:31:25;9.48;;;4.50;;
60370;SDS011;48550;40.588;49.684;2024-01-30T08:33:51;8.10;;;3.80;;
60370;SDS011;48550;40.588;49.684;2024-01-30T08:36:16;9.10;;;4.35;;
60370;SDS011;48550;40.588;49.684;2024-01-30T08:38:42;8.13;;;4.07;;
60370;SDS011;48550;40.588;49.684;2024-01-30T08:41:08;11.85;;;5.00;;
60370;SDS011;48550;40.588;49.684;2024-01-30T08:43:34;8.07;;;4.13;;
60370;SDS011;48550;40.588;49.684;2024-01-30T08:46:00;9.73;;;4.40;;
60370;SDS011;48550;40.588;49.684;2024-01-30T08:48:26;14.05;;;4.95;;
60370;SDS011;48550;40.588;49.684;2024-01-30T08:50:52;10.73;;;4.65;;
60370;SDS011;48550;40.588;49.684;2024-01-30T08:53:18;8.25;;;4.35;;
60370;SDS011;48550;40.588;49.684;2024-01-30T08:55:44;8.73;;;3.63;;
60370;SDS011;48550;40.588;49.684;2024-01-30T08:58:10;9.88;;;4.15;;
60370;SDS011;48550;40.588;49.684;2024-01-30T09:00:36;8.15;;;3.92;;
60370;SDS011;48550;40.588;49.684;2024-01-30T09:03:02;7.90;;;4.00;;
60370;SDS011;48550;40.588;49.684;2024-01-30T09:05:28;7.45;;;3.80;;
60370;SDS011;48550;40.588;49.684;2024-01-30T09:07:54;10.20;;;4.80;;
60370;SDS011;48550;40.588;49.684;2024-01-30T09:10:20;8.20;;;4.50;;
60370;SDS011;48550;40.588;49.684;2024-01-30T09:12:46;7.22;;;4.20;;
60370;SDS011;48550;40.588;49.684;2024-01-30T09:15:12;8.35;;;3.85;;
60370;SDS011;48550;40.588;49.684;2024-01-30T09:17:38;17.58;;;4.90;;
60370;SDS011;48550;40.588;49.684;2024-01-30T09:20:04;5.95;;;3.42;;
60370;SDS011;48550;40.588;49.684;2024-01-30T09:22:31;11.85;;;4.85;;
60370;SDS011;48550;40.588;49.684;2024-01-30T09:24:57;13.13;;;4.22;;
60370;SDS011;48550;40.588;49.684;2024-01-30T09:27:22;9.00;;;4.20;;
60370;SDS011;48550;40.588;49.684;2024-01-30T09:29:48;6.85;;;4.00;;
60370;SDS011;48550;40.588;49.684;2024-01-30T09:32:14;7.72;;;3.97;;
60370;SDS011;48550;40.588;49.684;2024-01-30T09:34:40;7.38;;;3.83;;
60370;SDS011;48550;40.588;49.684;2024-01-30T09:37:06;7.47;;;3.22;;
60370;SDS011;48550;40.588;49.684;2024-01-30T09:39:32;6.63;;;3.47;;
60370;SDS011;48550;40.588;49.684;2024-01-30T09:44:34;11.73;;;3.40;;
60370;SDS011;48550;40.588;49.684;2024-01-30T09:47:03;6.88;;;3.42;;
60370;SDS011;48550;40.588;49.684;2024-01-30T09:49:39;7.15;;;3.88;;
60370;SDS011;48550;40.588;49.684;2024-01-30T09:52:07;6.03;;;3.03;;
60370;SDS011;48550;40.588;49.684;2024-01-30T09:54:33;7.28;;;3.10;;
60370;SDS011;48550;40.588;49.684;2024-01-30T09:57:00;6.55;;;3.25;;
60370;SDS011;48550;40.588;49.684;2024-01-30T09:59:25;7.07;;;3.28;;
60370;SDS011;48550;40.588;49.684;2024-01-30T10:01:51;6.95;;;3.28;;
60370;SDS011;48550;40.588;49.684;2024-01-30T10:04:17;6.82;;;3.50;;
60370;SDS011;48550;40.588;49.684;2024-01-30T10:06:43;8.23;;;4.00;;
60370;SDS011;48550;40.588;49.684;2024-01-30T10:09:09;7.43;;;3.63;;
60370;SDS011;48550;40.588;49.684;2024-01-30T10:11:36;6.47;;;3.63;;
60370;SDS011;48550;40.588;49.684;2024-01-30T10:14:02;8.80;;;4.30;;
60370;SDS011;48550;40.588;49.684;2024-01-30T10:16:28;6.75;;;3.92;;
60370;SDS011;48550;40.588;49.684;2024-01-30T10:18:53;6.85;;;4.05;;
60370;SDS011;48550;40.588;49.684;2024-01-30T10:21:19;6.20;;;3.60;;
60370;SDS011;48550;40.588;49.684;2024-01-30T10:23:46;9.43;;;3.90;;
60370;SDS011;48550;40.588;49.684;2024-01-30T10:26:12;10.40;;;3.10;;
60370;SDS011;48550;40.588;49.684;2024-01-30T10:28:38;7.65;;;3.95;;
60370;SDS011;48550;40.588;49.684;2024-01-30T10:31:03;7.75;;;4.15;;
60370;SDS011;48550;40.588;49.684;2024-01-30T10:33:30;7.60;;;3.85;;
60370;SDS011;48550;40.588;49.684;2024-01-30T10:36:02;13.07;;;4.80;;
60370;SDS011;48550;40.588;49.684;2024-01-30T10:38:30;7.82;;;3.92;;
60370;SDS011;48550;40.588;49.684;2024-01-30T10:41:00;6.60;;;3.40;;
60370;SDS011;48550;40.588;49.684;2024-01-30T10:43:30;9.93;;;3.85;;
60370;SDS011;48550;40.588;49.684;2024-01-30T10:46:10;10.07;;;4.22;;
60370;SDS011;48550;40.588;49.684;2024-01-30T10:48:57;8.25;;;3.85;;
60370;SDS011;48550;40.588;49.684;2024-01-30T10:51:27;7.95;;;4.03;;
60370;SDS011;48550;40.588;49.684;2024-01-30T10:53:53;6.90;;;3.25;;
60370;SDS011;48550;40.588;49.684;2024-01-30T10:56:21;8.70;;;4.50;;
60370;SDS011;48550;40.588;49.684;2024-01-30T10:58:48;12.25;;;4.25;;
60370;SDS011;48550;40.588;49.684;2024-01-30T11:01:15;8.75;;;4.28;;
60370;SDS011;48550;40.588;49.684;2024-01-30T11:03:41;8.57;;;3.90;;
60370;SDS011;48550;40.588;49.684;2024-01-30T11:06:10;9.77;;;4.10;;
60370;SDS011;48550;40.588;49.684;2024-01-30T11:08:43;7.22;;;3.83;;
60370;SDS011;48550;40.588;49.684;2024-01-30T11:11:12;7.90;;;3.92;;
60370;SDS011;48550;40.588;49.684;2024-01-30T11:13:37;9.57;;;3.85;;
60370;SDS011;48550;40.588;49.684;2024-01-30T11:16:04;6.72;;;3.72;;
60370;SDS011;48550;40.588;49.684;2024-01-30T11:18:31;8.70;;;3.97;;
60370;SDS011;48550;40.588;49.684;2024-01-30T11:20:58;8.68;;;4.50;;
60370;SDS011;48550;40.588;49.684;2024-01-30T11:23:27;6.82;;;3.67;;
60370;SDS011;48550;40.588;49.684;2024-01-30T11:25:53;7.32;;;3.53;;
60370;SDS011;48550;40.588;49.684;2024-01-30T11:28:22;10.82;;;4.05;;
60370;SDS011;48550;40.588;49.684;2024-01-30T11:30:48;7.82;;;3.60;;
60370;SDS011;48550;40.588;49.684;2024-01-30T11:33:26;7.93;;;3.75;;
60370;SDS011;48550;40.588;49.684;2024-01-30T11:35:56;6.55;;;3.53;;
60370;SDS011;48550;40.588;49.684;2024-01-30T11:38:24;9.95;;;3.25;;
60370;SDS011;48550;40.588;49.684;2024-01-30T11:40:52;11.48;;;4.50;;
60370;SDS011;48550;40.588;49.684;2024-01-30T11:43:19;7.60;;;3.28;;
60370;SDS011;48550;40.588;49.684;2024-01-30T11:45:45;8.20;;;3.85;;
60370;SDS011;48550;40.588;49.684;2024-01-30T11:48:12;6.25;;;3.42;;
60370;SDS011;48550;40.588;49.684;2024-01-30T11:50:38;8.95;;;3.30;;
60370;SDS011;48550;40.588;49.684;2024-01-30T11:53:05;8.90;;;3.50;;
60370;SDS011;48550;40.588;49.684;2024-01-30T11:55:31;7.55;;;3.70;;
60370;SDS011;48550;40.588;49.684;2024-01-30T11:57:58;7.38;;;3.38;;
60370;SDS011;48550;40.588;49.684;2024-01-30T12:00:24;9.20;;;3.88;;
60370;SDS011;48550;40.588;49.684;2024-01-30T12:02:51;7.07;;;3.70;;
60370;SDS011;48550;40.588;49.684;2024-01-30T12:05:21;9.60;;;3.78;;
60370;SDS011;48550;40.588;49.684;2024-01-30T12:07:47;12.10;;;3.80;;
60370;SDS011;48550;40.588;49.684;2024-01-30T12:10:13;10.45;;;3.78;;
60370;SDS011;48550;40.588;49.684;2024-01-30T12:12:39;9.30;;;4.32;;
60370;SDS011;48550;40.588;49.684;2024-01-30T12:15:07;8.65;;;4.30;;
60370;SDS011;48550;40.588;49.684;2024-01-30T12:17:33;10.85;;;4.85;;
60370;SDS011;48550;40.588;49.684;2024-01-30T12:20:06;7.65;;;4.00;;
60370;SDS011;48550;40.588;49.684;2024-01-30T12:22:36;8.95;;;3.53;;
60370;SDS011;48550;40.588;49.684;2024-01-30T12:25:09;6.85;;;4.05;;
60370;SDS011;48550;40.588;49.684;2024-01-30T12:27:36;8.35;;;4.13;;
60370;SDS011;48550;40.588;49.684;2024-01-30T12:30:09;6.60;;;3.58;;
60370;SDS011;48550;40.588;49.684;2024-01-30T12:32:39;11.20;;;4.65;;
60370;SDS011;48550;40.588;49.684;2024-01-30T12:35:10;6.93;;;3.78;;
60370;SDS011;48550;40.588;49.684;2024-01-30T12:37:39;8.43;;;4.32;;
60370;SDS011;48550;40.588;49.684;2024-01-30T12:40:09;8.82;;;3.88;;
60370;SDS011;48550;40.588;49.684;2024-01-30T12:42:36;6.80;;;4.05;;
60370;SDS011;48550;40.588;49.684;2024-01-30T12:45:03;9.32;;;4.53;;
60370;SDS011;48550;40.588;49.684;2024-01-30T12:47:29;9.02;;;4.18;;
60370;SDS011;48550;40.588;49.684;2024-01-30T12:49:55;8.48;;;4.68;;
60370;SDS011;48550;40.588;49.684;2024-01-30T12:52:21;8.45;;;4.28;;
60370;SDS011;48550;40.588;49.684;2024-01-30T12:54:48;8.32;;;3.92;;
60370;SDS011;48550;40.588;49.684;2024-01-30T12:57:14;9.95;;;4.40;;
60370;SDS011;48550;40.588;49.684;2024-01-30T12:59:40;13.60;;;5.13;;
60370;SDS011;48550;40.588;49.684;2024-01-30T13:02:06;7.00;;;3.67;;
60370;SDS011;48550;40.588;49.684;2024-01-30T13:04:32;8.20;;;4.13;;
60370;SDS011;48550;40.588;49.684;2024-01-30T13:06:58;12.13;;;4.80;;
60370;SDS011;48550;40.588;49.684;2024-01-30T13:09:25;7.78;;;3.90;;
60370;SDS011;48550;40.588;49.684;2024-01-30T13:11:52;7.88;;;4.10;;
60370;SDS011;48550;40.588;49.684;2024-01-30T13:14:18;6.50;;;3.70;;
60370;SDS011;48550;40.588;49.684;2024-01-30T13:16:44;8.70;;;4.35;;
60370;SDS011;48550;40.588;49.684;2024-01-30T13:19:10;11.00;;;4.72;;
60370;SDS011;48550;40.588;49.684;2024-01-30T13:21:36;24.92;;;9.27;;
60370;SDS011;48550;40.588;49.684;2024-01-30T13:24:02;21.23;;;9.63;;
60370;SDS011;48550;40.588;49.684;2024-01-30T13:26:29;43.65;;;20.30;;
60370;SDS011;48550;40.588;49.684;2024-01-30T13:28:56;27.30;;;15.63;;
60370;SDS011;48550;40.588;49.684;2024-01-30T13:31:22;25.00;;;11.70;;
60370;SDS011;48550;40.588;49.684;2024-01-30T13:33:47;66.25;;;27.30;;
60370;SDS011;48550;40.588;49.684;2024-01-30T13:36:14;63.92;;;26.35;;
60370;SDS011;48550;40.588;49.684;2024-01-30T13:38:40;41.95;;;16.10;;
60370;SDS011;48550;40.588;49.684;2024-01-30T13:41:05;27.45;;;8.98;;
60370;SDS011;48550;40.588;49.684;2024-01-30T13:43:31;22.08;;;8.82;;
60370;SDS011;48550;40.588;49.684;2024-01-30T13:45:57;105.43;;;30.60;;
60370;SDS011;48550;40.588;49.684;2024-01-30T13:48:23;60.88;;;18.67;;
60370;SDS011;48550;40.588;49.684;2024-01-30T13:50:48;36.00;;;11.88;;
60370;SDS011;48550;40.588;49.684;2024-01-30T13:53:14;38.15;;;13.00;;
60370;SDS011;48550;40.588;49.684;2024-01-30T13:55:40;63.78;;;16.73;;
60370;SDS011;48550;40.588;49.684;2024-01-30T13:58:06;48.45;;;13.52;;
60370;SDS011;48550;40.588;49.684;2024-01-30T14:00:32;61.83;;;14.52;;
60370;SDS011;48550;40.588;49.684;2024-01-30T14:02:59;41.88;;;12.63;;
60370;SDS011;48550;40.588;49.684;2024-01-30T14:05:25;54.10;;;17.08;;
60370;SDS011;48550;40.588;49.684;2024-01-30T14:07:54;69.03;;;21.77;;
60370;SDS011;48550;40.588;49.684;2024-01-30T14:10:22;33.00;;;12.50;;
60370;SDS011;48550;40.588;49.684;2024-01-30T14:12:47;33.22;;;13.45;;
60370;SDS011;48550;40.588;49.684;2024-01-30T14:15:13;48.05;;;15.65;;
60370;SDS011;48550;40.588;49.684;2024-01-30T14:17:46;32.92;;;10.43;;
60370;SDS011;48550;40.588;49.684;2024-01-30T14:20:14;19.40;;;7.47;;
60370;SDS011;48550;40.588;49.684;2024-01-30T14:22:42;32.90;;;11.77;;